Terminal Aerodrome Forecast
Issued by NWS

Home | Current Version | Previous Version | Text Only | Print | Product List | Glossary On
Versions: 1 2 3 4 5 6 7 8 9 10 11 12 13 14 15 16 17 18 19 20
000
FTUS43 KDLH 081400 AAB
TAFBRD
TAF AMD
KBRD 081420Z 0814/0912 30012G20KT P6SM BKN015 OVC020
      TEMPO 0814/0816 SCT020
     FM081700 31015G23KT P6SM SCT030 BKN035
     FM090200 32010KT P6SM FEW050
     FM090500 31004KT P6SM SKC=

USA.gov is the U.S. government's official web portal to all federal, state and local government web resources and services.